<?xml version="1.0" encoding="UTF-8" standalone="no" ?><gpx xmlns="http://www.topografix.com/GPX/1/1" xmlns:gpxx="http://www.garmin.com/xmlschemas/GpxExtensions/v3" xmlns:wptx1="http://www.garmin.com/xmlschemas/WaypointExtension/v1" xmlns:gpxtpx="http://www.garmin.com/xmlschemas/TrackPointExtension/v1" creator="eTrex 30" version="1.1" xmlns:xsi="http://www.w3.org/2001/XMLSchema-instance" xsi:schemaLocation="http://www.topografix.com/GPX/1/1 http://www.topografix.com/GPX/1/1/gpx.xsd http://www.garmin.com/xmlschemas/GpxExtensions/v3 http://www8.garmin.com/xmlschemas/GpxExtensionsv3.xsd http://www.garmin.com/xmlschemas/WaypointExtension/v1 http://www8.garmin.com/xmlschemas/WaypointExtensionv1.xsd http://www.garmin.com/xmlschemas/TrackPointExtension/v1 http://www.garmin.com/xmlschemas/TrackPointExtensionv1.xsd"><metadata><link href="http://www.garmin.com"><text>Garmin International</text></link><time>2015-11-23T07:46:58Z</time></metadata><trk><name>23-NOV-15 09:46:56</name><extensions><gpxx:TrackExtension><gpxx:DisplayColor>Cyan</gpxx:DisplayColor></gpxx:TrackExtension></extensions><trkseg><trkpt lat="30.6746766251" lon="35.6105560251"><ele>1195.06</ele><time>2015-11-23T06:35:41Z</time></trkpt><trkpt lat="30.6746780500" lon="35.6105618086"><ele>1195.06</ele><time>2015-11-23T06:35:42Z</time></trkpt><trkpt lat="30.6746990047" lon="35.6106035504"><ele>1198.42</ele><time>2015-11-23T06:35:55Z</time></trkpt><trkpt lat="30.6746985856" lon="35.6106019579"><ele>1203.23</ele><time>2015-11-23T06:35:57Z</time></trkpt><trkpt lat="30.6747024413" lon="35.6106263492"><ele>1205.15</ele><time>2015-11-23T06:36:01Z</time></trkpt><trkpt lat="30.6747073028" lon="35.6106460467"><ele>1209.00</ele><time>2015-11-23T06:36:04Z</time></trkpt><trkpt lat="30.6747166067" lon="35.6106483936"><ele>1212.36</ele><time>2015-11-23T06:36:07Z</time></trkpt><trkpt lat="30.6747232284" lon="35.6106483098"><ele>1215.24</ele><time>2015-11-23T06:36:09Z</time></trkpt><trkpt lat="30.6747285929" lon="35.6106474716"><ele>1218.61</ele><time>2015-11-23T06:36:15Z</time></trkpt><trkpt lat="30.6747353822" lon="35.6106382515"><ele>1220.05</ele><time>2015-11-23T06:36:18Z</time></trkpt><trkpt lat="30.6747448537" lon="35.6106331386"><ele>1223.90</ele><time>2015-11-23T06:36:21Z</time></trkpt><trkpt lat="30.6747512240" lon="35.6106325518"><ele>1224.38</ele><time>2015-11-23T06:36:22Z</time></trkpt><trkpt lat="30.6747731008" lon="35.6106306240"><ele>1225.34</ele><time>2015-11-23T06:36:24Z</time></trkpt><trkpt lat="30.6748199556" lon="35.6106063165"><ele>1227.26</ele><time>2015-11-23T06:36:28Z</time></trkpt><trkpt lat="30.6748918723" lon="35.6105427817"><ele>1229.66</ele><time>2015-11-23T06:36:34Z</time></trkpt><trkpt lat="30.6749635376" lon="35.6104561128"><ele>1232.07</ele><time>2015-11-23T06:36:44Z</time></trkpt><trkpt lat="30.6749826483" lon="35.6104331464"><ele>1233.51</ele><time>2015-11-23T06:36:47Z</time></trkpt><trkpt lat="30.6750371307" lon="35.6103513390"><ele>1235.43</ele><time>2015-11-23T06:36:59Z</time></trkpt><trkpt lat="30.6750765257" lon="35.6103314739"><ele>1235.43</ele><time>2015-11-23T06:37:11Z</time></trkpt><trkpt lat="30.6750880927" lon="35.6103170570"><ele>1237.83</ele><time>2015-11-23T06:37:21Z</time></trkpt><trkpt lat="30.6751275714" lon="35.6102417037"><ele>1235.91</ele><time>2015-11-23T06:37:33Z</time></trkpt><trkpt lat="30.6751326844" lon="35.6102349143"><ele>1235.91</ele><time>2015-11-23T06:37:34Z</time></trkpt><trkpt lat="30.6751878373" lon="35.6101685297"><ele>1235.43</ele><time>2015-11-23T06:37:45Z</time></trkpt><trkpt lat="30.6752621848" lon="35.6100998819"><ele>1236.39</ele><time>2015-11-23T06:37:58Z</time></trkpt><trkpt lat="30.6753340177" lon="35.6100038253"><ele>1236.39</ele><time>2015-11-23T06:38:11Z</time></trkpt><trkpt lat="30.6753365323" lon="35.6099684536"><ele>1236.87</ele><time>2015-11-23T06:38:18Z</time></trkpt><trkpt lat="30.6752762664" lon="35.6100280490"><ele>1235.91</ele><time>2015-11-23T06:38:32Z</time></trkpt><trkpt lat="30.6752917729" lon="35.6100005563"><ele>1237.35</ele><time>2015-11-23T06:38:43Z</time></trkpt><trkpt lat="30.6753931101" lon="35.6099757459"><ele>1236.39</ele><time>2015-11-23T06:39:01Z</time></trkpt><trkpt lat="30.6753932778" lon="35.6100110337"><ele>1235.43</ele><time>2015-11-23T06:39:06Z</time></trkpt><trkpt lat="30.6753960438" lon="35.6100451481"><ele>1235.43</ele><time>2015-11-23T06:39:28Z</time></trkpt><trkpt lat="30.6753940322" lon="35.6101406179"><ele>1233.99</ele><time>2015-11-23T06:39:42Z</time></trkpt><trkpt lat="30.6753993127" lon="35.6101299729"><ele>1234.95</ele><time>2015-11-23T06:39:45Z</time></trkpt><trkpt lat="30.6754109636" lon="35.6101004686"><ele>1233.99</ele><time>2015-11-23T06:39:50Z</time></trkpt><trkpt lat="30.6754153222" lon="35.6100722216"><ele>1233.03</ele><time>2015-11-23T06:39:55Z</time></trkpt><trkpt lat="30.6754101254" lon="35.6100837048"><ele>1234.47</ele><time>2015-11-23T06:40:00Z</time></trkpt><trkpt lat="30.6754076108" lon="35.6101060845"><ele>1234.95</ele><time>2015-11-23T06:40:04Z</time></trkpt><trkpt lat="30.6754020788" lon="35.6101396959"><ele>1235.43</ele><time>2015-11-23T06:40:07Z</time></trkpt><trkpt lat="30.6754041743" lon="35.6101614051"><ele>1234.95</ele><time>2015-11-23T06:40:09Z</time></trkpt><trkpt lat="30.6753998157" lon="35.6102322321"><ele>1233.99</ele><time>2015-11-23T06:40:25Z</time></trkpt><trkpt lat="30.6754119694" lon="35.6103735510"><ele>1232.07</ele><time>2015-11-23T06:40:38Z</time></trkpt><trkpt lat="30.6754659489" lon="35.6105273589"><ele>1231.11</ele><time>2015-11-23T06:40:52Z</time></trkpt><trkpt lat="30.6755055953" lon="35.6106117647"><ele>1230.62</ele><time>2015-11-23T06:41:07Z</time></trkpt><trkpt lat="30.6755114626" lon="35.6106152851"><ele>1230.62</ele><time>2015-11-23T06:41:27Z</time></trkpt><trkpt lat="30.6755037513" lon="35.6106157880"><ele>1230.14</ele><time>2015-11-23T06:41:46Z</time></trkpt><trkpt lat="30.6754941121" lon="35.6106143631"><ele>1230.62</ele><time>2015-11-23T06:41:51Z</time></trkpt><trkpt lat="30.6754907593" lon="35.6106229965"><ele>1230.62</ele><time>2015-11-23T06:42:01Z</time></trkpt><trkpt lat="30.6754910946" lon="35.6106026284"><ele>1229.66</ele><time>2015-11-23T06:42:14Z</time></trkpt><trkpt lat="30.6754859816" lon="35.6106091663"><ele>1230.14</ele><time>2015-11-23T06:42:17Z</time></trkpt><trkpt lat="30.6755009852" lon="35.6106317975"><ele>1230.14</ele><time>2015-11-23T06:42:20Z</time></trkpt><trkpt lat="30.6755295675" lon="35.6106568594"><ele>1230.14</ele><time>2015-11-23T06:42:23Z</time></trkpt><trkpt lat="30.6756796036" lon="35.6108047161"><ele>1228.70</ele><time>2015-11-23T06:42:42Z</time></trkpt><trkpt lat="30.6757838745" lon="35.6108900439"><ele>1225.82</ele><time>2015-11-23T06:42:55Z</time></trkpt><trkpt lat="30.6758908276" lon="35.6109026168"><ele>1222.45</ele><time>2015-11-23T06:43:10Z</time></trkpt><trkpt lat="30.6759470701" lon="35.6109011918"><ele>1221.01</ele><time>2015-11-23T06:43:26Z</time></trkpt><trkpt lat="30.6759549491" lon="35.6109006889"><ele>1221.49</ele><time>2015-11-23T06:43:43Z</time></trkpt><trkpt lat="30.6759756524" lon="35.6109067239"><ele>1221.01</ele><time>2015-11-23T06:43:45Z</time></trkpt><trkpt lat="30.6761090923" lon="35.6109187100"><ele>1218.61</ele><time>2015-11-23T06:43:59Z</time></trkpt><trkpt lat="30.6761482358" lon="35.6109535787"><ele>1218.13</ele><time>2015-11-23T06:44:14Z</time></trkpt><trkpt lat="30.6762378383" lon="35.6110090669"><ele>1217.17</ele><time>2015-11-23T06:44:25Z</time></trkpt><trkpt lat="30.6763379183" lon="35.6110728532"><ele>1215.72</ele><time>2015-11-23T06:44:40Z</time></trkpt><trkpt lat="30.6764266826" lon="35.6111141760"><ele>1214.76</ele><time>2015-11-23T06:44:55Z</time></trkpt><trkpt lat="30.6764820870" lon="35.6111475360"><ele>1213.80</ele><time>2015-11-23T06:45:01Z</time></trkpt><trkpt lat="30.6765664089" lon="35.6111700833"><ele>1213.80</ele><time>2015-11-23T06:45:10Z</time></trkpt><trkpt lat="30.6765809935" lon="35.6111860089"><ele>1213.32</ele><time>2015-11-23T06:45:12Z</time></trkpt><trkpt lat="30.6766436901" lon="35.6112949736"><ele>1212.36</ele><time>2015-11-23T06:45:25Z</time></trkpt><trkpt lat="30.6766832527" lon="35.6113424990"><ele>1211.88</ele><time>2015-11-23T06:45:31Z</time></trkpt><trkpt lat="30.6767013576" lon="35.6113515515"><ele>1210.92</ele><time>2015-11-23T06:45:33Z</time></trkpt><trkpt lat="30.6767857634" lon="35.6114015914"><ele>1211.40</ele><time>2015-11-23T06:45:44Z</time></trkpt><trkpt lat="30.6768023595" lon="35.6114073750"><ele>1211.40</ele><time>2015-11-23T06:45:46Z</time></trkpt><trkpt lat="30.6769468635" lon="35.6114510447"><ele>1210.92</ele><time>2015-11-23T06:46:03Z</time></trkpt><trkpt lat="30.6770797167" lon="35.6114801299"><ele>1211.40</ele><time>2015-11-23T06:46:18Z</time></trkpt><trkpt lat="30.6772281602" lon="35.6115798745"><ele>1212.84</ele><time>2015-11-23T06:46:36Z</time></trkpt><trkpt lat="30.6772632804" lon="35.6115991529"><ele>1212.84</ele><time>2015-11-23T06:46:45Z</time></trkpt><trkpt lat="30.6773059443" lon="35.6116264779"><ele>1214.28</ele><time>2015-11-23T06:46:50Z</time></trkpt><trkpt lat="30.6773243006" lon="35.6116315909"><ele>1213.80</ele><time>2015-11-23T06:46:52Z</time></trkpt><trkpt lat="30.6774211954" lon="35.6117064413"><ele>1213.80</ele><time>2015-11-23T06:47:04Z</time></trkpt><trkpt lat="30.6775170006" lon="35.6118339300"><ele>1213.80</ele><time>2015-11-23T06:47:20Z</time></trkpt><trkpt lat="30.6775240414" lon="35.6118402164"><ele>1213.80</ele><time>2015-11-23T06:47:21Z</time></trkpt><trkpt lat="30.6775985565" lon="35.6119351834"><ele>1213.80</ele><time>2015-11-23T06:47:33Z</time></trkpt><trkpt lat="30.6776189245" lon="35.6119540427"><ele>1212.84</ele><time>2015-11-23T06:47:39Z</time></trkpt><trkpt lat="30.6776764244" lon="35.6119860616"><ele>1212.84</ele><time>2015-11-23T06:47:46Z</time></trkpt><trkpt lat="30.6777025759" lon="35.6119868159"><ele>1213.80</ele><time>2015-11-23T06:47:48Z</time></trkpt><trkpt lat="30.6778091937" lon="35.6120421365"><ele>1212.84</ele><time>2015-11-23T06:48:02Z</time></trkpt><trkpt lat="30.6779362634" lon="35.6120317429"><ele>1213.80</ele><time>2015-11-23T06:48:15Z</time></trkpt><trkpt lat="30.6780107785" lon="35.6120268814"><ele>1213.80</ele><time>2015-11-23T06:48:28Z</time></trkpt><trkpt lat="30.6780723017" lon="35.6120790169"><ele>1214.28</ele><time>2015-11-23T06:48:41Z</time></trkpt><trkpt lat="30.6781414524" lon="35.6122049130"><ele>1216.21</ele><time>2015-11-23T06:48:55Z</time></trkpt><trkpt lat="30.6782207452" lon="35.6122723874"><ele>1215.72</ele><time>2015-11-23T06:49:05Z</time></trkpt><trkpt lat="30.6782476511" lon="35.6122940965"><ele>1215.72</ele><time>2015-11-23T06:49:08Z</time></trkpt><trkpt lat="30.6783331465" lon="35.6123142131"><ele>1215.24</ele><time>2015-11-23T06:49:25Z</time></trkpt><trkpt lat="30.6783520058" lon="35.6123052444"><ele>1215.72</ele><time>2015-11-23T06:49:45Z</time></trkpt><trkpt lat="30.6783619802" lon="35.6123413704"><ele>1215.72</ele><time>2015-11-23T06:50:05Z</time></trkpt><trkpt lat="30.6783695240" lon="35.6123966072"><ele>1218.13</ele><time>2015-11-23T06:50:17Z</time></trkpt><trkpt lat="30.6783996988" lon="35.6123892311"><ele>1218.61</ele><time>2015-11-23T06:50:22Z</time></trkpt><trkpt lat="30.6784565281" lon="35.6123924162"><ele>1218.61</ele><time>2015-11-23T06:50:37Z</time></trkpt><trkpt lat="30.6784708612" lon="35.6124020554"><ele>1217.17</ele><time>2015-11-23T06:50:43Z</time></trkpt><trkpt lat="30.6784784049" lon="35.6124008819"><ele>1219.09</ele><time>2015-11-23T06:51:01Z</time></trkpt><trkpt lat="30.6785286125" lon="35.6123847887"><ele>1216.21</ele><time>2015-11-23T06:51:18Z</time></trkpt><trkpt lat="30.6785863638" lon="35.6124002114"><ele>1216.21</ele><time>2015-11-23T06:51:31Z</time></trkpt><trkpt lat="30.6786029600" lon="35.6124107726"><ele>1216.21</ele><time>2015-11-23T06:51:33Z</time></trkpt><trkpt lat="30.6786354817" lon="35.6124391872"><ele>1216.21</ele><time>2015-11-23T06:51:40Z</time></trkpt><trkpt lat="30.6786975916" lon="35.6124883052"><ele>1216.21</ele><time>2015-11-23T06:51:53Z</time></trkpt><trkpt lat="30.6787032075" lon="35.6125047337"><ele>1216.21</ele><time>2015-11-23T06:51:55Z</time></trkpt><trkpt lat="30.6787283532" lon="35.6125272810"><ele>1216.21</ele><time>2015-11-23T06:51:58Z</time></trkpt><trkpt lat="30.6787552591" lon="35.6125827692"><ele>1216.69</ele><time>2015-11-23T06:52:04Z</time></trkpt><trkpt lat="30.6787707657" lon="35.6125993654"><ele>1216.21</ele><time>2015-11-23T06:52:06Z</time></trkpt><trkpt lat="30.6788775511" lon="35.6127183046"><ele>1217.17</ele><time>2015-11-23T06:52:20Z</time></trkpt><trkpt lat="30.6789783854" lon="35.6127877906"><ele>1218.61</ele><time>2015-11-23T06:52:35Z</time></trkpt><trkpt lat="30.6789935566" lon="35.6128065661"><ele>1219.09</ele><time>2015-11-23T06:52:45Z</time></trkpt><trkpt lat="30.6790254917" lon="35.6128010340"><ele>1219.57</ele><time>2015-11-23T06:53:02Z</time></trkpt><trkpt lat="30.6790860090" lon="35.6127937417"><ele>1219.57</ele><time>2015-11-23T06:53:17Z</time></trkpt><trkpt lat="30.6790929660" lon="35.6127917301"><ele>1220.05</ele><time>2015-11-23T06:53:34Z</time></trkpt><trkpt lat="30.6791461073" lon="35.6127779838"><ele>1220.53</ele><time>2015-11-23T06:53:49Z</time></trkpt><trkpt lat="30.6791651342" lon="35.6127815880"><ele>1220.05</ele><time>2015-11-23T06:54:07Z</time></trkpt><trkpt lat="30.6792085525" lon="35.6127656624"><ele>1220.53</ele><time>2015-11-23T06:54:20Z</time></trkpt><trkpt lat="30.6792787928" lon="35.6128052250"><ele>1221.97</ele><time>2015-11-23T06:54:33Z</time></trkpt><trkpt lat="30.6793236360" lon="35.6128151994"><ele>1222.45</ele><time>2015-11-23T06:54:46Z</time></trkpt><trkpt lat="30.6793569122" lon="35.6128701009"><ele>1222.93</ele><time>2015-11-23T06:54:59Z</time></trkpt><trkpt lat="30.6793328561" lon="35.6128791533"><ele>1222.93</ele><time>2015-11-23T06:55:11Z</time></trkpt><trkpt lat="30.6793184392" lon="35.6129152793"><ele>1223.42</ele><time>2015-11-23T06:55:23Z</time></trkpt><trkpt lat="30.6792951375" lon="35.6129208114"><ele>1222.45</ele><time>2015-11-23T06:55:38Z</time></trkpt><trkpt lat="30.6792983226" lon="35.6129341386"><ele>1223.90</ele><time>2015-11-23T06:56:07Z</time></trkpt><trkpt lat="30.6792972330" lon="35.6129216496"><ele>1223.42</ele><time>2015-11-23T06:56:24Z</time></trkpt><trkpt lat="30.6793191098" lon="35.6128789857"><ele>1222.93</ele><time>2015-11-23T06:56:39Z</time></trkpt><trkpt lat="30.6793627795" lon="35.6128550973"><ele>1222.93</ele><time>2015-11-23T06:56:52Z</time></trkpt><trkpt lat="30.6794306729" lon="35.6129081547"><ele>1225.34</ele><time>2015-11-23T06:57:04Z</time></trkpt><trkpt lat="30.6795066968" lon="35.6128965039"><ele>1226.30</ele><time>2015-11-23T06:57:18Z</time></trkpt><trkpt lat="30.6795531325" lon="35.6128781475"><ele>1226.78</ele><time>2015-11-23T06:57:33Z</time></trkpt><trkpt lat="30.6796172541" lon="35.6128863618"><ele>1228.22</ele><time>2015-11-23T06:57:44Z</time></trkpt><trkpt lat="30.6796500273" lon="35.6128980126"><ele>1229.66</ele><time>2015-11-23T06:57:50Z</time></trkpt><trkpt lat="30.6796660367" lon="35.6129471306"><ele>1231.11</ele><time>2015-11-23T06:58:01Z</time></trkpt><trkpt lat="30.6796522066" lon="35.6129392516"><ele>1231.11</ele><time>2015-11-23T06:58:17Z</time></trkpt><trkpt lat="30.6796523742" lon="35.6129549257"><ele>1231.11</ele><time>2015-11-23T06:58:35Z</time></trkpt><trkpt lat="30.6796555594" lon="35.6129687559"><ele>1231.59</ele><time>2015-11-23T06:59:06Z</time></trkpt><trkpt lat="30.6796456687" lon="35.6129740365"><ele>1231.59</ele><time>2015-11-23T06:59:28Z</time></trkpt><trkpt lat="30.6796221994" lon="35.6129862741"><ele>1231.59</ele><time>2015-11-23T06:59:35Z</time></trkpt><trkpt lat="30.6796510331" lon="35.6129625533"><ele>1231.59</ele><time>2015-11-23T06:59:39Z</time></trkpt><trkpt lat="30.6796781067" lon="35.6129571050"><ele>1231.11</ele><time>2015-11-23T06:59:42Z</time></trkpt><trkpt lat="30.6797092874" lon="35.6129383296"><ele>1232.55</ele><time>2015-11-23T06:59:54Z</time></trkpt><trkpt lat="30.6797476765" lon="35.6130167004"><ele>1235.91</ele><time>2015-11-23T07:00:06Z</time></trkpt><trkpt lat="30.6797895022" lon="35.6130661536"><ele>1238.80</ele><time>2015-11-23T07:00:20Z</time></trkpt><trkpt lat="30.6798301544" lon="35.6130778044"><ele>1240.72</ele><time>2015-11-23T07:00:32Z</time></trkpt><trkpt lat="30.6798408832" lon="35.6130954903"><ele>1241.68</ele><time>2015-11-23T07:00:51Z</time></trkpt><trkpt lat="30.6798448227" lon="35.6131039560"><ele>1239.76</ele><time>2015-11-23T07:00:55Z</time></trkpt><trkpt lat="30.6798256282" lon="35.6131163612"><ele>1240.72</ele><time>2015-11-23T07:01:14Z</time></trkpt><trkpt lat="30.6798363570" lon="35.6130990107"><ele>1241.68</ele><time>2015-11-23T07:01:41Z</time></trkpt><trkpt lat="30.6798272207" lon="35.6131142657"><ele>1241.68</ele><time>2015-11-23T07:02:09Z</time></trkpt><trkpt lat="30.6798061822" lon="35.6130995974"><ele>1242.16</ele><time>2015-11-23T07:02:26Z</time></trkpt><trkpt lat="30.6798052602" lon="35.6131005194"><ele>1240.72</ele><time>2015-11-23T07:02:28Z</time></trkpt><trkpt lat="30.6798116304" lon="35.6131101586"><ele>1241.20</ele><time>2015-11-23T07:02:57Z</time></trkpt><trkpt lat="30.6798433978" lon="35.6131557561"><ele>1244.08</ele><time>2015-11-23T07:03:09Z</time></trkpt><trkpt lat="30.6798692979" lon="35.6131926365"><ele>1246.01</ele><time>2015-11-23T07:03:23Z</time></trkpt><trkpt lat="30.6798792724" lon="35.6132566743"><ele>1249.37</ele><time>2015-11-23T07:03:38Z</time></trkpt><trkpt lat="30.6798622571" lon="35.6132980809"><ele>1251.29</ele><time>2015-11-23T07:03:51Z</time></trkpt><trkpt lat="30.6798449066" lon="35.6133374758"><ele>1253.22</ele><time>2015-11-23T07:04:02Z</time></trkpt><trkpt lat="30.6798283104" lon="35.6133645494"><ele>1253.70</ele><time>2015-11-23T07:04:12Z</time></trkpt><trkpt lat="30.6798384525" lon="35.6133934669"><ele>1256.10</ele><time>2015-11-23T07:04:21Z</time></trkpt><trkpt lat="30.6799002271" lon="35.6134011783"><ele>1258.02</ele><time>2015-11-23T07:04:36Z</time></trkpt><trkpt lat="30.6799187511" lon="35.6134802196"><ele>1260.43</ele><time>2015-11-23T07:04:49Z</time></trkpt><trkpt lat="30.6799246185" lon="35.6135407370"><ele>1262.83</ele><time>2015-11-23T07:05:00Z</time></trkpt><trkpt lat="30.6799416337" lon="35.6135928724"><ele>1265.71</ele><time>2015-11-23T07:05:11Z</time></trkpt><trkpt lat="30.6799902488" lon="35.6136200298"><ele>1267.64</ele><time>2015-11-23T07:05:22Z</time></trkpt><trkpt lat="30.6799677014" lon="35.6136536412"><ele>1270.04</ele><time>2015-11-23T07:05:30Z</time></trkpt><trkpt lat="30.6799522787" lon="35.6136726681"><ele>1269.08</ele><time>2015-11-23T07:05:45Z</time></trkpt><trkpt lat="30.6799476687" lon="35.6137064472"><ele>1269.08</ele><time>2015-11-23T07:06:21Z</time></trkpt><trkpt lat="30.6799635105" lon="35.6136938743"><ele>1268.12</ele><time>2015-11-23T07:06:45Z</time></trkpt><trkpt lat="30.6799437292" lon="35.6137097999"><ele>1269.08</ele><time>2015-11-23T07:06:57Z</time></trkpt><trkpt lat="30.6799237803" lon="35.6136876717"><ele>1268.60</ele><time>2015-11-23T07:07:31Z</time></trkpt><trkpt lat="30.6799298152" lon="35.6136862468"><ele>1269.08</ele><time>2015-11-23T07:08:04Z</time></trkpt><trkpt lat="30.6799034122" lon="35.6137054414"><ele>1269.08</ele><time>2015-11-23T07:08:31Z</time></trkpt><trkpt lat="30.6799079385" lon="35.6136938743"><ele>1268.60</ele><time>2015-11-23T07:09:03Z</time></trkpt><trkpt lat="30.6799236126" lon="35.6137065310"><ele>1268.60</ele><time>2015-11-23T07:09:26Z</time></trkpt><trkpt lat="30.6799295638" lon="35.6136952154"><ele>1268.60</ele><time>2015-11-23T07:09:54Z</time></trkpt><trkpt lat="30.6799241994" lon="35.6136727519"><ele>1269.08</ele><time>2015-11-23T07:10:33Z</time></trkpt><trkpt lat="30.6799263787" lon="35.6136876717"><ele>1269.08</ele><time>2015-11-23T07:11:00Z</time></trkpt><trkpt lat="30.6799074356" lon="35.6136753503"><ele>1269.08</ele><time>2015-11-23T07:11:29Z</time></trkpt><trkpt lat="30.6798727345" lon="35.6136799604"><ele>1268.60</ele><time>2015-11-23T07:11:40Z</time></trkpt><trkpt lat="30.6797893345" lon="35.6136874203"><ele>1269.08</ele><time>2015-11-23T07:11:52Z</time></trkpt><trkpt lat="30.6797169987" lon="35.6136659626"><ele>1271.96</ele><time>2015-11-23T07:12:05Z</time></trkpt><trkpt lat="30.6796835549" lon="35.6136890966"><ele>1273.88</ele><time>2015-11-23T07:12:19Z</time></trkpt><trkpt lat="30.6796848960" lon="35.6137064472"><ele>1274.85</ele><time>2015-11-23T07:12:32Z</time></trkpt><trkpt lat="30.6796842255" lon="35.6137339398"><ele>1276.29</ele><time>2015-11-23T07:12:43Z</time></trkpt><trkpt lat="30.6796461716" lon="35.6137632765"><ele>1277.73</ele><time>2015-11-23T07:12:55Z</time></trkpt><trkpt lat="30.6796423160" lon="35.6137823872"><ele>1278.69</ele><time>2015-11-23T07:13:08Z</time></trkpt><trkpt lat="30.6796403881" lon="35.6138105504"><ele>1279.17</ele><time>2015-11-23T07:13:20Z</time></trkpt><trkpt lat="30.6796594989" lon="35.6138381269"><ele>1280.13</ele><time>2015-11-23T07:13:34Z</time></trkpt><trkpt lat="30.6797175854" lon="35.6138556451"><ele>1282.06</ele><time>2015-11-23T07:13:48Z</time></trkpt><trkpt lat="30.6797620095" lon="35.6139051821"><ele>1283.98</ele><time>2015-11-23T07:14:01Z</time></trkpt><trkpt lat="30.6798003986" lon="35.6139351055"><ele>1287.34</ele><time>2015-11-23T07:14:14Z</time></trkpt><trkpt lat="30.6798434816" lon="35.6139543839"><ele>1287.82</ele><time>2015-11-23T07:14:30Z</time></trkpt><trkpt lat="30.6798412185" lon="35.6139808707"><ele>1287.82</ele><time>2015-11-23T07:14:44Z</time></trkpt><trkpt lat="30.6798666157" lon="35.6140122190"><ele>1288.30</ele><time>2015-11-23T07:14:54Z</time></trkpt><trkpt lat="30.6798139773" lon="35.6140250433"><ele>1289.27</ele><time>2015-11-23T07:15:07Z</time></trkpt><trkpt lat="30.6797432341" lon="35.6140559725"><ele>1290.23</ele><time>2015-11-23T07:15:18Z</time></trkpt><trkpt lat="30.6797081139" lon="35.6140798610"><ele>1291.19</ele><time>2015-11-23T07:15:32Z</time></trkpt><trkpt lat="30.6796955410" lon="35.6140712276"><ele>1291.19</ele><time>2015-11-23T07:15:45Z</time></trkpt><trkpt lat="30.6796597503" lon="35.6140451599"><ele>1289.75</ele><time>2015-11-23T07:16:02Z</time></trkpt><trkpt lat="30.6795833912" lon="35.6140002329"><ele>1288.78</ele><time>2015-11-23T07:16:18Z</time></trkpt><trkpt lat="30.6795506179" lon="35.6140322518"><ele>1288.78</ele><time>2015-11-23T07:16:25Z</time></trkpt><trkpt lat="30.6794698164" lon="35.6140377838"><ele>1288.78</ele><time>2015-11-23T07:16:37Z</time></trkpt><trkpt lat="30.6794093829" lon="35.6140541285"><ele>1289.27</ele><time>2015-11-23T07:16:53Z</time></trkpt><trkpt lat="30.6793940440" lon="35.6140605826"><ele>1288.78</ele><time>2015-11-23T07:17:11Z</time></trkpt><trkpt lat="30.6793475244" lon="35.6140798610"><ele>1289.75</ele><time>2015-11-23T07:17:26Z</time></trkpt><trkpt lat="30.6793142483" lon="35.6140962057"><ele>1293.11</ele><time>2015-11-23T07:17:37Z</time></trkpt><trkpt lat="30.6792995799" lon="35.6140834652"><ele>1293.11</ele><time>2015-11-23T07:17:48Z</time></trkpt><trkpt lat="30.6792938802" lon="35.6140960380"><ele>1293.59</ele><time>2015-11-23T07:17:58Z</time></trkpt><trkpt lat="30.6792758591" lon="35.6141086109"><ele>1294.07</ele><time>2015-11-23T07:18:18Z</time></trkpt><trkpt lat="30.6792797148" lon="35.6141124666"><ele>1293.59</ele><time>2015-11-23T07:18:26Z</time></trkpt><trkpt lat="30.6792280823" lon="35.6141022407"><ele>1294.07</ele><time>2015-11-23T07:18:41Z</time></trkpt><trkpt lat="30.6792226341" lon="35.6141044199"><ele>1294.07</ele><time>2015-11-23T07:18:42Z</time></trkpt><trkpt lat="30.6792078819" lon="35.6140900031"><ele>1294.07</ele><time>2015-11-23T07:18:57Z</time></trkpt><trkpt lat="30.6791767012" lon="35.6140895002"><ele>1294.07</ele><time>2015-11-23T07:19:08Z</time></trkpt><trkpt lat="30.6791354623" lon="35.6140853930"><ele>1294.07</ele><time>2015-11-23T07:19:19Z</time></trkpt><trkpt lat="30.6791060418" lon="35.6140875723"><ele>1294.07</ele><time>2015-11-23T07:19:34Z</time></trkpt><trkpt lat="30.6791033596" lon="35.6140902545"><ele>1294.07</ele><time>2015-11-23T07:19:39Z</time></trkpt><trkpt lat="30.6790835783" lon="35.6140714791"><ele>1294.07</ele><time>2015-11-23T07:19:51Z</time></trkpt><trkpt lat="30.6790614501" lon="35.6140794419"><ele>1295.03</ele><time>2015-11-23T07:20:07Z</time></trkpt><trkpt lat="30.6790722627" lon="35.6140716467"><ele>1294.07</ele><time>2015-11-23T07:20:23Z</time></trkpt><trkpt lat="30.6790653896" lon="35.6140935235"><ele>1294.55</ele><time>2015-11-23T07:20:52Z</time></trkpt><trkpt lat="30.6790731009" lon="35.6140834652"><ele>1294.55</ele><time>2015-11-23T07:21:22Z</time></trkpt><trkpt lat="30.6790517271" lon="35.6140954513"><ele>1294.55</ele><time>2015-11-23T07:21:51Z</time></trkpt><trkpt lat="30.6790311076" lon="35.6141132209"><ele>1294.55</ele><time>2015-11-23T07:22:29Z</time></trkpt><trkpt lat="30.6790327840" lon="35.6141234469"><ele>1295.03</ele><time>2015-11-23T07:23:08Z</time></trkpt><trkpt lat="30.6790446863" lon="35.6141254585"><ele>1294.55</ele><time>2015-11-23T07:23:53Z</time></trkpt><trkpt lat="30.6790689938" lon="35.6140836328"><ele>1294.07</ele><time>2015-11-23T07:24:29Z</time></trkpt><trkpt lat="30.6790525652" lon="35.6141091138"><ele>1295.03</ele><time>2015-11-23T07:24:55Z</time></trkpt><trkpt lat="30.6790515594" lon="35.6140903383"><ele>1295.03</ele><time>2015-11-23T07:25:32Z</time></trkpt><trkpt lat="30.6790684070" lon="35.6141056772"><ele>1295.51</ele><time>2015-11-23T07:25:52Z</time></trkpt><trkpt lat="30.6790707540" lon="35.6141135562"><ele>1295.51</ele><time>2015-11-23T07:26:19Z</time></trkpt><trkpt lat="30.6790601090" lon="35.6141033303"><ele>1295.03</ele><time>2015-11-23T07:26:51Z</time></trkpt><trkpt lat="30.6790564209" lon="35.6140908413"><ele>1295.51</ele><time>2015-11-23T07:27:32Z</time></trkpt><trkpt lat="30.6790669821" lon="35.6140822079"><ele>1294.55</ele><time>2015-11-23T07:28:22Z</time></trkpt><trkpt lat="30.6790499669" lon="35.6141019054"><ele>1295.03</ele><time>2015-11-23T07:29:03Z</time></trkpt><trkpt lat="30.6790592708" lon="35.6141006481"><ele>1295.03</ele><time>2015-11-23T07:29:47Z</time></trkpt><trkpt lat="30.6790733524" lon="35.6141045876"><ele>1295.99</ele><time>2015-11-23T07:30:22Z</time></trkpt><trkpt lat="30.6790767889" lon="35.6140905898"><ele>1295.51</ele><time>2015-11-23T07:31:02Z</time></trkpt><trkpt lat="30.6790692452" lon="35.6141025759"><ele>1295.99</ele><time>2015-11-23T07:31:42Z</time></trkpt><trkpt lat="30.6790790521" lon="35.6140950322"><ele>1295.99</ele><time>2015-11-23T07:32:21Z</time></trkpt><trkpt lat="30.6790771242" lon="35.6141144782"><ele>1295.51</ele><time>2015-11-23T07:32:48Z</time></trkpt><trkpt lat="30.6790768728" lon="35.6141107064"><ele>1296.48</ele><time>2015-11-23T07:33:18Z</time></trkpt><trkpt lat="30.6790592708" lon="35.6141115446"><ele>1296.96</ele><time>2015-11-23T07:33:44Z</time></trkpt><trkpt lat="30.6789991725" lon="35.6140091177"><ele>1293.59</ele><time>2015-11-23T07:33:59Z</time></trkpt><trkpt lat="30.6789377332" lon="35.6139549706"><ele>1292.15</ele><time>2015-11-23T07:34:11Z</time></trkpt><trkpt lat="30.6788892020" lon="35.6139168330"><ele>1290.71</ele><time>2015-11-23T07:34:22Z</time></trkpt><trkpt lat="30.6787978392" lon="35.6138718221"><ele>1288.30</ele><time>2015-11-23T07:34:36Z</time></trkpt><trkpt lat="30.6787395850" lon="35.6138640270"><ele>1287.82</ele><time>2015-11-23T07:34:47Z</time></trkpt><trkpt lat="30.6787224859" lon="35.6138635240"><ele>1288.30</ele><time>2015-11-23T07:34:49Z</time></trkpt><trkpt lat="30.6787023693" lon="35.6138583273"><ele>1287.82</ele><time>2015-11-23T07:34:51Z</time></trkpt><trkpt lat="30.6785416882" lon="35.6138404738"><ele>1289.27</ele><time>2015-11-23T07:35:08Z</time></trkpt><trkpt lat="30.6784499902" lon="35.6138291582"><ele>1288.78</ele><time>2015-11-23T07:35:18Z</time></trkpt><trkpt lat="30.6783804204" lon="35.6138232909"><ele>1289.27</ele><time>2015-11-23T07:35:25Z</time></trkpt><trkpt lat="30.6783335656" lon="35.6138288230"><ele>1289.27</ele><time>2015-11-23T07:35:29Z</time></trkpt><trkpt lat="30.6782153808" lon="35.6138089579"><ele>1290.23</ele><time>2015-11-23T07:35:43Z</time></trkpt><trkpt lat="30.6781264488" lon="35.6137965526"><ele>1290.71</ele><time>2015-11-23T07:35:53Z</time></trkpt><trkpt lat="30.6779325753" lon="35.6137691438"><ele>1290.23</ele><time>2015-11-23T07:36:11Z</time></trkpt><trkpt lat="30.6777645182" lon="35.6137490273"><ele>1291.19</ele><time>2015-11-23T07:36:26Z</time></trkpt><trkpt lat="30.6776022445" lon="35.6137200259"><ele>1291.67</ele><time>2015-11-23T07:36:41Z</time></trkpt><trkpt lat="30.6774060242" lon="35.6136739254"><ele>1292.15</ele><time>2015-11-23T07:36:58Z</time></trkpt><trkpt lat="30.6771781202" lon="35.6136269029"><ele>1293.59</ele><time>2015-11-23T07:37:17Z</time></trkpt><trkpt lat="30.6769879349" lon="35.6135688163"><ele>1293.59</ele><time>2015-11-23T07:37:34Z</time></trkpt><trkpt lat="30.6768303551" lon="35.6135022640"><ele>1293.11</ele><time>2015-11-23T07:37:48Z</time></trkpt><trkpt lat="30.6767900381" lon="35.6134933792"><ele>1293.11</ele><time>2015-11-23T07:37:52Z</time></trkpt><trkpt lat="30.6767707597" lon="35.6134826504"><ele>1293.59</ele><time>2015-11-23T07:37:54Z</time></trkpt><trkpt lat="30.6766711827" lon="35.6134569179"><ele>1293.59</ele><time>2015-11-23T07:38:04Z</time></trkpt><trkpt lat="30.6765342224" lon="35.6133901980"><ele>1293.11</ele><time>2015-11-23T07:38:18Z</time></trkpt><trkpt lat="30.6765082385" lon="35.6133711711"><ele>1293.11</ele><time>2015-11-23T07:38:21Z</time></trkpt><trkpt lat="30.6764804106" lon="35.6133608613"><ele>1292.63</ele><time>2015-11-23T07:38:24Z</time></trkpt><trkpt lat="30.6764208153" lon="35.6133360509"><ele>1292.63</ele><time>2015-11-23T07:38:30Z</time></trkpt><trkpt lat="30.6763951667" lon="35.6133225560"><ele>1294.07</ele><time>2015-11-23T07:38:33Z</time></trkpt><trkpt lat="30.6763339788" lon="35.6133023556"><ele>1292.15</ele><time>2015-11-23T07:38:48Z</time></trkpt><trkpt lat="30.6762783229" lon="35.6132815685"><ele>1292.63</ele><time>2015-11-23T07:39:02Z</time></trkpt><trkpt lat="30.6761718728" lon="35.6132417545"><ele>1293.11</ele><time>2015-11-23T07:39:15Z</time></trkpt><trkpt lat="30.6761064101" lon="35.6132075563"><ele>1292.15</ele><time>2015-11-23T07:39:25Z</time></trkpt><trkpt lat="30.6760908198" lon="35.6132001802"><ele>1292.63</ele><time>2015-11-23T07:39:27Z</time></trkpt><trkpt lat="30.6759067532" lon="35.6131588574"><ele>1293.11</ele><time>2015-11-23T07:39:45Z</time></trkpt><trkpt lat="30.6758875586" lon="35.6131505594"><ele>1292.15</ele><time>2015-11-23T07:39:47Z</time></trkpt><trkpt lat="30.6757687870" lon="35.6131200492"><ele>1292.15</ele><time>2015-11-23T07:39:59Z</time></trkpt><trkpt lat="30.6755376142" lon="35.6130596157"><ele>1290.23</ele><time>2015-11-23T07:40:18Z</time></trkpt><trkpt lat="30.6753328443" lon="35.6130025350"><ele>1291.67</ele><time>2015-11-23T07:40:35Z</time></trkpt><trkpt lat="30.6750989892" lon="35.6129377428"><ele>1290.71</ele><time>2015-11-23T07:40:55Z</time></trkpt><trkpt lat="30.6749112345" lon="35.6128960848"><ele>1290.23</ele><time>2015-11-23T07:41:12Z</time></trkpt><trkpt lat="30.6748675648" lon="35.6128779799"><ele>1288.78</ele><time>2015-11-23T07:41:19Z</time></trkpt><trkpt lat="30.6748290081" lon="35.6128824223"><ele>1288.78</ele><time>2015-11-23T07:41:30Z</time></trkpt><trkpt lat="30.6747948937" lon="35.6128618028"><ele>1287.82</ele><time>2015-11-23T07:41:44Z</time></trkpt><trkpt lat="30.6747158524" lon="35.6127853598"><ele>1285.42</ele><time>2015-11-23T07:41:58Z</time></trkpt><trkpt lat="30.6746614538" lon="35.6127414387"><ele>1285.42</ele><time>2015-11-23T07:42:09Z</time></trkpt><trkpt lat="30.6744819134" lon="35.6126413587"><ele>1282.54</ele><time>2015-11-23T07:42:27Z</time></trkpt><trkpt lat="30.6743128505" lon="35.6125399377"><ele>1283.02</ele><time>2015-11-23T07:42:43Z</time></trkpt><trkpt lat="30.6742931530" lon="35.6125278678"><ele>1282.06</ele><time>2015-11-23T07:42:45Z</time></trkpt><trkpt lat="30.6741138641" lon="35.6123726349"><ele>1279.65</ele><time>2015-11-23T07:43:03Z</time></trkpt><trkpt lat="30.6740750559" lon="35.6123184040"><ele>1279.17</ele><time>2015-11-23T07:43:08Z</time></trkpt><trkpt lat="30.6740019657" lon="35.6120716408"><ele>1275.81</ele><time>2015-11-23T07:43:26Z</time></trkpt><trkpt lat="30.6739372574" lon="35.6119252089"><ele>1272.92</ele><time>2015-11-23T07:43:39Z</time></trkpt><trkpt lat="30.6738530193" lon="35.6117658690"><ele>1271.48</ele><time>2015-11-23T07:43:58Z</time></trkpt><trkpt lat="30.6738488283" lon="35.6117304973"><ele>1271.48</ele><time>2015-11-23T07:44:02Z</time></trkpt><trkpt lat="30.6739246007" lon="35.6115761865"><ele>1268.12</ele><time>2015-11-23T07:44:21Z</time></trkpt><trkpt lat="30.6739832740" lon="35.6114574987"><ele>1266.19</ele><time>2015-11-23T07:44:34Z</time></trkpt><trkpt lat="30.6740544364" lon="35.6113865878"><ele>1265.71</ele><time>2015-11-23T07:44:49Z</time></trkpt><trkpt lat="30.6740818452" lon="35.6112974882"><ele>1262.35</ele><time>2015-11-23T07:45:02Z</time></trkpt><trkpt lat="30.6741475593" lon="35.6112000905"><ele>1260.43</ele><time>2015-11-23T07:45:15Z</time></trkpt><trkpt lat="30.6742393412" lon="35.6110889465"><ele>1257.54</ele><time>2015-11-23T07:45:29Z</time></trkpt><trkpt lat="30.6743371580" lon="35.6109838374"><ele>1257.06</ele><time>2015-11-23T07:45:43Z</time></trkpt><trkpt lat="30.6744277664" lon="35.6108998507"><ele>1255.62</ele><time>2015-11-23T07:45:58Z</time></trkpt><trkpt lat="30.6745400000" lon="35.6108105835"><ele>1253.22</ele><time>2015-11-23T07:46:14Z</time></trkpt><trkpt lat="30.6746083125" lon="35.6107587833"><ele>1251.77</ele><time>2015-11-23T07:46:26Z</time></trkpt><trkpt lat="30.6746408343" lon="35.6107337214"><ele>1250.81</ele><time>2015-11-23T07:46:39Z</time></trkpt><trkpt lat="30.6746636331" lon="35.6107313745"><ele>1251.29</ele><time>2015-11-23T07:46:52Z</time></trkpt></trkseg></trk></gpx>